Terminal Aerodrome Forecast
Issued by NWS

Home | Current Version | Previous Version | Text Only | Print | Product List | Glossary On
Versions: 1 2 3 4 5 6 7 8 9 10 11 12 13 14 15
000
FTUS41 KPBZ 130520
TAFBVI
TAF
KBVI 130520Z 1306/1406 28011KT P6SM -SN BKN035
      TEMPO 1306/1308 2SM -SN BKN015
     FM131400 26013G20KT P6SM BKN035
     FM132000 21010KT 4SM -SN BKN015
     FM140200 18010KT 2SM -SN BKN008
      AMD NOT SKED=

USA.gov is the U.S. government's official web portal to all federal, state and local government web resources and services.